createdAt,value
2017-12-02T00:01:25.768Z,29.50
2017-12-02T00:03:54.079Z,30.00
2017-12-02T00:06:22.351Z,32.90
2017-12-02T00:08:50.650Z,31.17
2017-12-02T00:11:18.157Z,32.00
2017-12-02T00:13:45.658Z,29.27
2017-12-02T00:16:13.178Z,33.27
2017-12-02T00:18:40.683Z,29.87
2017-12-02T00:21:08.257Z,30.20
2017-12-02T00:23:35.730Z,31.20
2017-12-02T00:26:03.253Z,28.90
2017-12-02T00:28:30.751Z,30.60
2017-12-02T00:30:58.272Z,28.80
2017-12-02T00:33:25.778Z,27.93
2017-12-02T00:35:53.327Z,30.20
2017-12-02T00:38:20.839Z,27.20
2017-12-02T00:40:48.347Z,29.37
2017-12-02T00:43:15.868Z,29.43
2017-12-02T00:45:43.371Z,27.93
2017-12-02T00:48:10.895Z,29.07
2017-12-02T00:50:38.400Z,29.80
2017-12-02T00:53:06.723Z,30.10
2017-12-02T00:55:34.227Z,28.33
2017-12-02T00:58:01.739Z,26.87
2017-12-02T01:00:29.259Z,23.70
2017-12-02T01:02:57.526Z,24.80
2017-12-02T01:05:25.815Z,26.17
2017-12-02T01:07:54.086Z,25.40
2017-12-02T01:10:22.394Z,26.20
2017-12-02T01:12:49.899Z,26.40
2017-12-02T01:15:17.420Z,25.23
2017-12-02T01:17:44.952Z,22.90
2017-12-02T01:20:12.466Z,23.70
2017-12-02T01:22:39.995Z,25.17
2017-12-02T01:25:07.507Z,20.60
2017-12-02T01:27:35.794Z,26.03
2017-12-02T01:30:04.063Z,25.73
2017-12-02T01:32:32.345Z,23.17
2017-12-02T01:35:00.615Z,24.37
2017-12-02T01:37:28.894Z,23.47
2017-12-02T01:39:57.162Z,22.67
2017-12-02T01:42:25.450Z,24.17
2017-12-02T01:44:53.739Z,24.63
2017-12-02T01:47:21.242Z,22.53
2017-12-02T01:49:48.758Z,22.80
2017-12-02T01:52:16.266Z,21.73
2017-12-02T01:54:43.794Z,24.47
2017-12-02T01:57:11.289Z,23.37
2017-12-02T01:59:38.816Z,23.50
2017-12-02T02:02:06.327Z,26.40
2017-12-02T02:04:34.615Z,24.33
2017-12-02T02:07:02.884Z,22.87
2017-12-02T02:09:31.167Z,23.27
2017-12-02T02:11:59.426Z,22.10
2017-12-02T02:14:27.706Z,23.87
2017-12-02T02:16:55.970Z,24.27
2017-12-02T02:19:23.486Z,24.90
2017-12-02T02:21:50.991Z,23.37
2017-12-02T02:24:19.287Z,23.20
2017-12-02T02:26:46.790Z,23.80
2017-12-02T02:29:14.291Z,20.13
2017-12-02T02:31:42.580Z,20.60
2017-12-02T02:34:10.078Z,20.30
2017-12-02T02:36:37.596Z,20.13
2017-12-02T02:39:05.116Z,20.37
2017-12-02T02:41:32.671Z,18.73
2017-12-02T02:44:00.190Z,20.30
2017-12-02T02:46:27.850Z,21.80
2017-12-02T02:48:55.378Z,21.97
2017-12-02T02:51:23.642Z,21.33
2017-12-02T02:53:51.164Z,19.67
2017-12-02T02:56:18.671Z,20.97
2017-12-02T02:58:46.955Z,21.73
2017-12-02T03:01:15.218Z,21.03
2017-12-02T03:03:43.536Z,20.93
2017-12-02T03:06:11.045Z,22.50
2017-12-02T03:08:38.546Z,21.63
2017-12-02T03:11:06.067Z,20.93
2017-12-02T03:13:34.339Z,18.40
2017-12-02T03:16:02.627Z,19.90
2017-12-02T03:18:30.892Z,21.00
2017-12-02T03:20:59.199Z,21.37
2017-12-02T03:23:26.707Z,21.00
2017-12-02T03:25:54.207Z,20.73
2017-12-02T03:28:21.723Z,18.90
2017-12-02T03:30:49.230Z,19.97
2017-12-02T03:33:16.751Z,19.93
2017-12-02T03:35:44.255Z,21.70
2017-12-02T03:38:11.803Z,21.67
2017-12-02T03:40:39.308Z,22.60
2017-12-02T03:43:06.810Z,24.63
2017-12-02T03:45:35.096Z,23.33
2017-12-02T03:48:02.598Z,22.70
2017-12-02T03:50:30.118Z,21.00
2017-12-02T03:52:57.621Z,22.07
2017-12-02T03:55:25.163Z,22.20
2017-12-02T03:57:52.666Z,21.73
2017-12-02T04:00:20.936Z,22.53
2017-12-02T04:02:49.226Z,22.63
2017-12-02T04:05:17.490Z,20.80
2017-12-02T04:07:45.782Z,21.27
2017-12-02T04:10:13.282Z,20.60
2017-12-02T04:12:40.838Z,19.87
2017-12-02T04:15:08.373Z,20.40
2017-12-02T04:17:35.912Z,20.40
2017-12-02T04:20:04.824Z,19.93
2017-12-02T04:22:32.355Z,21.40
2017-12-02T04:25:00.628Z,21.70
2017-12-02T04:27:28.899Z,17.90
2017-12-02T04:29:57.182Z,15.70
2017-12-02T04:32:25.447Z,17.00
2017-12-02T04:34:53.731Z,16.87
2017-12-02T04:37:22.000Z,18.20
2017-12-02T04:39:50.291Z,17.57
2017-12-02T04:42:18.558Z,17.80
2017-12-02T04:44:46.845Z,19.50
2017-12-02T04:47:15.111Z,18.47
2017-12-02T04:49:43.386Z,20.00
2017-12-02T04:52:11.672Z,21.60
2017-12-02T04:54:39.946Z,21.27
2017-12-02T04:57:08.234Z,19.30
2017-12-02T04:59:35.738Z,21.23
2017-12-02T05:02:04.030Z,21.17
2017-12-02T05:04:31.532Z,23.70
2017-12-02T05:06:59.039Z,20.30
2017-12-02T05:09:26.550Z,21.53
2017-12-02T05:11:54.058Z,22.80
2017-12-02T05:14:21.588Z,21.40
2017-12-02T05:16:49.097Z,22.70
2017-12-02T05:19:17.400Z,23.17
2017-12-02T05:21:44.905Z,21.40
2017-12-02T05:24:12.406Z,21.37
2017-12-02T05:26:39.922Z,20.87
2017-12-02T05:29:07.418Z,21.57
2017-12-02T05:31:35.711Z,21.50
2017-12-02T05:34:03.214Z,20.63
2017-12-02T05:36:30.742Z,18.60
2017-12-02T05:38:58.243Z,21.30
2017-12-02T05:41:26.104Z,23.10
2017-12-02T05:43:53.591Z,22.13
2017-12-02T05:46:21.876Z,21.70
2017-12-02T05:48:49.394Z,23.10
2017-12-02T05:51:16.905Z,21.13
2017-12-02T05:53:44.430Z,23.23
2017-12-02T05:56:12.706Z,23.00
2017-12-02T05:58:40.974Z,22.90
2017-12-02T06:01:09.269Z,22.57
2017-12-02T06:03:36.770Z,23.97
2017-12-02T06:06:04.305Z,21.40
2017-12-02T06:08:31.807Z,22.87
2017-12-02T06:10:59.330Z,22.53
2017-12-02T06:13:26.889Z,22.33
2017-12-02T06:15:55.114Z,24.30
2017-12-02T06:18:22.632Z,24.60
2017-12-02T06:20:50.139Z,25.40
2017-12-02T06:23:18.429Z,24.47
2017-12-02T06:25:45.937Z,22.17
2017-12-02T06:28:13.458Z,23.30
2017-12-02T06:30:40.963Z,23.73
2017-12-02T06:33:08.486Z,25.30
2017-12-02T06:35:35.992Z,23.10
2017-12-02T06:38:03.486Z,22.37
2017-12-02T06:40:31.002Z,22.63
2017-12-02T06:42:58.508Z,24.80
2017-12-02T06:45:26.026Z,24.33
2017-12-02T06:47:53.532Z,24.87
2017-12-02T06:50:21.075Z,23.80
2017-12-02T06:52:48.578Z,23.53
2017-12-02T06:55:16.074Z,23.37
2017-12-02T06:57:43.603Z,25.20
2017-12-02T07:00:11.115Z,23.77
2017-12-02T07:02:38.634Z,22.33
2017-12-02T07:05:06.139Z,23.10
2017-12-02T07:07:33.670Z,22.53
2017-12-02T07:10:01.942Z,24.90
2017-12-02T07:12:30.215Z,23.90
2017-12-02T07:14:58.502Z,24.87
2017-12-02T07:17:26.258Z,22.80
2017-12-02T07:19:54.586Z,23.30
2017-12-02T07:22:22.107Z,26.00
2017-12-02T07:24:49.646Z,23.57
2017-12-02T07:27:17.919Z,25.27
2017-12-02T07:29:46.202Z,23.27
2017-12-02T07:32:14.548Z,24.53
2017-12-02T07:34:42.071Z,23.20
2017-12-02T07:37:09.580Z,24.10
2017-12-02T07:39:37.115Z,20.23
2017-12-02T07:42:04.629Z,22.70
2017-12-02T07:44:32.187Z,23.30
2017-12-02T07:47:00.444Z,25.53
2017-12-02T07:49:28.738Z,23.10
2017-12-02T07:51:56.238Z,23.90
2017-12-02T07:54:23.748Z,23.37
2017-12-02T07:56:51.275Z,24.77
2017-12-02T07:59:18.783Z,24.70
2017-12-02T08:01:46.303Z,24.53
2017-12-02T08:04:14.574Z,25.00
2017-12-02T08:06:42.099Z,21.77
2017-12-02T08:09:09.606Z,23.20
2017-12-02T08:11:37.891Z,22.77
2017-12-02T08:14:05.402Z,23.00
2017-12-02T08:16:32.927Z,23.93
2017-12-02T08:19:00.460Z,25.40
2017-12-02T08:21:28.733Z,24.90
2017-12-02T08:23:57.014Z,25.23
2017-12-02T08:26:25.287Z,23.80
2017-12-02T08:28:53.569Z,24.17
2017-12-02T08:31:21.074Z,24.50
2017-12-02T08:33:48.583Z,21.80
2017-12-02T08:36:16.111Z,24.70
2017-12-02T08:38:43.620Z,24.50
2017-12-02T08:41:11.147Z,23.10
2017-12-02T08:43:39.420Z,24.70
2017-12-02T08:46:07.720Z,23.50
2017-12-02T08:48:35.244Z,23.97
2017-12-02T08:51:02.808Z,25.20
2017-12-02T08:53:31.103Z,22.70
2017-12-02T08:55:59.370Z,23.00
2017-12-02T08:58:27.670Z,24.40
2017-12-02T09:00:55.178Z,26.03
2017-12-02T09:03:22.714Z,24.70
2017-12-02T09:05:50.214Z,25.50
2017-12-02T09:08:18.506Z,24.57
2017-12-02T09:10:46.779Z,24.33
2017-12-02T09:13:14.322Z,23.77
2017-12-02T09:15:42.595Z,24.63
2017-12-02T09:18:10.107Z,24.43
2017-12-02T09:20:37.622Z,25.30
2017-12-02T09:23:05.890Z,25.83
2017-12-02T09:25:34.183Z,25.97
2017-12-02T09:28:02.459Z,25.47
2017-12-02T09:30:30.747Z,24.77
2017-12-02T09:32:58.249Z,26.00
2017-12-02T09:35:25.783Z,27.13
2017-12-02T09:37:53.287Z,27.17
2017-12-02T09:40:21.570Z,26.70
2017-12-02T09:42:49.862Z,24.17
2017-12-02T09:45:17.370Z,24.17
2017-12-02T09:47:44.890Z,24.60
2017-12-02T09:50:12.399Z,25.57
2017-12-02T09:52:39.926Z,24.47
2017-12-02T09:55:07.896Z,23.43
2017-12-02T09:57:36.218Z,24.30
2017-12-02T10:00:03.730Z,24.83
2017-12-02T10:02:31.235Z,25.27
2017-12-02T10:04:58.754Z,23.27
2017-12-02T10:07:26.262Z,22.37
2017-12-02T10:09:54.545Z,23.30
2017-12-02T10:12:22.810Z,23.00
2017-12-02T10:14:51.101Z,23.07
2017-12-02T10:17:19.460Z,22.97
2017-12-02T10:19:47.825Z,22.00
2017-12-02T10:22:15.331Z,23.30
2017-12-02T10:24:42.840Z,21.30
2017-12-02T10:27:10.358Z,20.60
2017-12-02T10:29:37.866Z,20.37
2017-12-02T10:32:06.155Z,21.00
2017-12-02T10:34:34.426Z,19.83
2017-12-02T10:37:02.716Z,19.63
2017-12-02T10:39:30.991Z,18.10
2017-12-02T10:41:58.527Z,19.23
2017-12-02T10:44:26.039Z,19.90
2017-12-02T10:46:53.558Z,18.90
2017-12-02T10:49:21.826Z,19.07
2017-12-02T10:51:49.381Z,20.47
2017-12-02T10:54:16.888Z,18.60
2017-12-02T10:56:44.390Z,17.73
2017-12-02T10:59:11.914Z,19.77
2017-12-02T11:01:39.419Z,20.37
2017-12-02T11:04:07.699Z,19.00
2017-12-02T11:06:35.961Z,18.77
2017-12-02T11:09:03.479Z,19.13
2017-12-02T11:11:30.978Z,18.80
2017-12-02T11:13:58.490Z,17.70
2017-12-02T11:16:25.987Z,17.83
2017-12-02T11:18:53.506Z,19.13
2017-12-02T11:21:21.009Z,17.50
2017-12-02T11:23:48.511Z,17.23
2017-12-02T12:02:34.130Z,14.50
2017-12-02T12:05:01.630Z,13.13
2017-12-02T12:07:29.167Z,12.17
2017-12-02T12:09:56.673Z,14.27
2017-12-02T12:12:24.186Z,14.17
2017-12-02T12:14:51.711Z,13.43
2017-12-02T12:17:19.983Z,14.10
2017-12-02T12:19:48.271Z,13.50
2017-12-02T12:22:15.783Z,14.63
2017-12-02T12:24:43.303Z,12.87
2017-12-02T12:27:10.808Z,13.07
2017-12-02T12:29:38.338Z,14.13
2017-12-02T12:32:05.842Z,13.80
2017-12-02T12:34:34.134Z,15.63
2017-12-02T12:37:02.401Z,15.33
2017-12-02T12:39:30.695Z,15.30
2017-12-02T12:41:58.199Z,11.50
2017-12-02T12:44:25.702Z,9.87
2017-12-02T12:46:53.987Z,12.37
2017-12-02T12:49:21.495Z,13.50
2017-12-02T12:51:49.036Z,14.77
2017-12-02T12:54:16.546Z,12.23
2017-12-02T12:56:44.836Z,13.27
2017-12-02T12:59:12.338Z,16.13
2017-12-02T13:01:39.871Z,12.33
2017-12-02T13:04:07.379Z,12.27
2017-12-02T13:06:34.900Z,12.10
2017-12-02T13:09:03.174Z,13.13
2017-12-02T13:11:30.706Z,13.17
2017-12-02T13:13:58.212Z,13.00
2017-12-02T13:16:25.710Z,9.77
2017-12-02T13:18:53.999Z,10.40
2017-12-02T13:21:21.506Z,13.33
2017-12-02T13:23:49.026Z,10.70
2017-12-02T13:26:16.534Z,11.40
2017-12-02T13:28:44.055Z,11.17
2017-12-02T13:31:11.562Z,12.70
2017-12-02T13:33:39.863Z,12.63
2017-12-02T13:36:07.366Z,15.07
2017-12-02T13:38:34.871Z,12.50
2017-12-02T13:41:03.158Z,13.30
2017-12-02T13:43:30.665Z,14.33
2017-12-02T13:45:58.188Z,13.93
2017-12-02T13:48:25.695Z,13.90
2017-12-02T13:50:53.214Z,15.10
2017-12-02T13:53:20.723Z,14.27
2017-12-02T13:55:49.035Z,15.50
2017-12-02T13:58:16.534Z,15.47
2017-12-02T14:00:44.044Z,15.30
2017-12-02T14:03:11.566Z,13.53
2017-12-02T14:05:39.070Z,15.10
2017-12-02T14:08:06.594Z,14.57
2017-12-02T14:10:34.873Z,14.60
2017-12-02T14:13:03.159Z,16.60
2017-12-02T14:15:30.664Z,13.57
2017-12-02T14:17:58.190Z,16.70
2017-12-02T14:20:25.710Z,14.73
2017-12-02T14:22:54.006Z,15.03
2017-12-02T14:25:22.278Z,15.00
2017-12-02T14:27:50.562Z,15.23
2017-12-02T14:30:18.076Z,14.50
2017-12-02T14:32:45.596Z,16.03
2017-12-02T14:35:13.138Z,16.23
2017-12-02T14:37:40.666Z,15.53
2017-12-02T14:40:08.186Z,14.27
2017-12-02T14:42:35.702Z,14.77
2017-12-02T14:45:03.986Z,16.80
2017-12-02T14:47:31.491Z,15.57
2017-12-02T14:49:59.018Z,14.00
2017-12-02T14:52:26.523Z,14.13
2017-12-02T14:54:54.047Z,15.57
2017-12-02T14:57:21.609Z,14.00
2017-12-02T14:59:49.851Z,15.13
2017-12-02T15:02:18.114Z,15.33
2017-12-02T15:04:46.403Z,14.90
2017-12-02T15:07:13.919Z,16.47
2017-12-02T15:09:41.460Z,16.90
2017-12-02T15:12:08.966Z,16.37
2017-12-02T15:14:37.243Z,16.53
2017-12-02T15:17:05.536Z,15.57
2017-12-02T15:19:33.052Z,17.10
2017-12-02T15:22:00.575Z,16.73
2017-12-02T15:24:28.078Z,17.17
2017-12-02T15:26:55.602Z,16.73
2017-12-02T15:29:23.103Z,15.23
2017-12-02T15:31:51.390Z,16.23
2017-12-02T15:34:19.664Z,14.10
2017-12-02T15:36:47.964Z,16.50
2017-12-02T15:39:15.470Z,16.87
2017-12-02T15:41:42.980Z,14.97
2017-12-02T15:44:10.502Z,16.00
2017-12-02T15:46:38.770Z,15.27
2017-12-02T15:49:06.298Z,15.33
2017-12-02T15:51:33.803Z,15.50
2017-12-02T15:54:02.099Z,14.40
2017-12-02T15:56:29.603Z,15.90
2017-12-02T15:58:57.124Z,15.40
2017-12-02T16:01:24.631Z,16.57
2017-12-02T16:03:52.165Z,17.00
2017-12-02T16:06:19.667Z,18.20
2017-12-02T16:08:47.938Z,17.17
2017-12-02T16:11:16.227Z,15.70
2017-12-02T16:13:43.743Z,16.97
2017-12-02T16:16:11.270Z,15.60
2017-12-02T16:18:38.775Z,15.27
2017-12-02T16:21:06.296Z,16.47
2017-12-02T16:23:33.790Z,14.10
2017-12-02T16:26:01.311Z,15.83
2017-12-02T16:28:28.810Z,14.60
2017-12-02T16:30:56.354Z,14.33
2017-12-02T16:33:23.859Z,13.13
2017-12-02T16:35:51.362Z,13.97
2017-12-02T16:38:19.162Z,14.13
2017-12-02T16:40:47.430Z,13.57
2017-12-02T16:43:14.951Z,15.07
2017-12-02T16:45:42.454Z,14.67
2017-12-02T16:48:10.738Z,14.27
2017-12-02T16:50:39.007Z,15.03
2017-12-02T16:53:07.294Z,15.73
2017-12-02T16:55:35.566Z,15.53
2017-12-02T16:58:03.871Z,14.80
2017-12-02T17:00:31.366Z,15.57
2017-12-02T17:02:58.866Z,14.90
2017-12-02T17:05:26.387Z,14.50
2017-12-02T17:07:53.899Z,13.90
2017-12-02T17:10:21.415Z,14.67
2017-12-02T17:12:48.918Z,14.27
2017-12-02T17:15:16.443Z,15.90
2017-12-02T17:17:44.711Z,14.30
2017-12-02T17:20:12.999Z,16.17
2017-12-02T17:22:41.265Z,16.73
2017-12-02T17:25:08.787Z,15.63
2017-12-02T17:27:36.287Z,14.80
2017-12-02T17:30:04.579Z,16.80
2017-12-02T17:32:32.087Z,15.33
2017-12-02T17:35:00.357Z,14.03
2017-12-02T17:37:27.878Z,14.90
2017-12-02T17:39:55.384Z,14.93
2017-12-02T17:42:22.903Z,15.30
2017-12-02T17:44:50.407Z,15.53
2017-12-02T17:47:17.926Z,15.90
2017-12-02T17:49:45.431Z,16.13
2017-12-02T17:52:12.950Z,15.80
2017-12-02T17:54:40.456Z,14.40
2017-12-02T17:57:08.747Z,16.77
2017-12-02T17:59:36.255Z,16.83
2017-12-02T18:02:03.762Z,16.13
2017-12-02T18:04:32.047Z,15.93
2017-12-02T18:06:59.557Z,17.20
2017-12-02T18:09:27.082Z,18.00
2017-12-02T18:11:54.578Z,18.20
2017-12-02T18:14:22.103Z,18.57
2017-12-02T18:16:49.606Z,17.87
2017-12-02T18:19:17.127Z,16.00
2017-12-02T18:21:44.630Z,19.90
2017-12-02T18:24:13.295Z,19.20
2017-12-02T18:26:40.799Z,18.30
2017-12-02T18:29:08.310Z,19.10
2017-12-02T18:31:35.837Z,18.97
2017-12-02T18:34:03.343Z,20.97
2017-12-02T18:36:30.856Z,22.10
2017-12-02T18:38:58.358Z,18.57
2017-12-02T18:41:25.890Z,17.30
2017-12-02T18:43:53.394Z,18.00
2017-12-02T18:46:21.689Z,19.10
2017-12-02T18:48:49.190Z,17.33
2017-12-02T18:51:16.710Z,17.00
2017-12-02T18:53:44.210Z,18.17
2017-12-02T18:56:11.726Z,18.03
2017-12-02T18:58:39.235Z,17.20
2017-12-02T19:01:06.755Z,20.40
2017-12-02T19:03:34.259Z,19.17
2017-12-02T19:06:02.537Z,17.97
2017-12-02T19:08:30.798Z,19.00
2017-12-02T19:10:58.303Z,18.93
2017-12-02T19:13:25.833Z,18.37
2017-12-02T19:15:54.112Z,17.17
2017-12-02T19:18:22.398Z,18.33
2017-12-02T19:20:49.898Z,15.40
2017-12-02T19:23:17.460Z,18.13
2017-12-02T19:25:44.938Z,17.90
2017-12-02T19:28:12.458Z,17.07
2017-12-02T19:30:39.975Z,15.60
2017-12-02T19:33:08.245Z,17.90
2017-12-02T19:35:36.539Z,19.23
2017-12-02T19:38:04.806Z,14.87
2017-12-02T19:40:33.090Z,16.10
2017-12-02T19:43:01.358Z,19.20
2017-12-02T19:45:29.643Z,19.83
2017-12-02T19:47:57.151Z,21.23
2017-12-02T19:50:25.439Z,16.47
2017-12-02T19:52:52.938Z,17.30
2017-12-02T19:55:20.464Z,18.13
2017-12-02T19:57:47.970Z,17.33
2017-12-02T20:00:15.514Z,17.77
2017-12-02T20:02:43.014Z,18.90
2017-12-02T20:05:10.531Z,17.03
2017-12-02T20:07:38.135Z,18.47
2017-12-02T20:10:06.408Z,17.70
2017-12-02T20:12:33.927Z,19.20
2017-12-02T20:15:01.430Z,18.70
2017-12-02T20:17:28.954Z,17.40
2017-12-02T20:19:56.458Z,17.40
2017-12-02T20:22:23.983Z,17.33
2017-12-02T20:24:51.491Z,18.57
2017-12-02T20:27:19.780Z,18.77
2017-12-02T20:29:48.047Z,18.90
2017-12-02T20:32:16.354Z,16.80
2017-12-02T20:34:43.854Z,16.90
2017-12-02T20:37:11.359Z,16.53
2017-12-02T20:39:38.883Z,13.80
2017-12-02T20:42:06.384Z,13.80
2017-12-02T20:44:33.903Z,14.63
2017-12-02T20:47:01.406Z,16.27
2017-12-02T20:49:28.964Z,15.20
2017-12-02T20:51:56.471Z,13.80
2017-12-02T20:54:23.992Z,14.30
2017-12-02T20:56:51.491Z,15.57
2017-12-02T20:59:19.006Z,14.80
2017-12-02T21:01:46.514Z,17.27
2017-12-02T21:04:14.803Z,16.40
2017-12-02T21:06:43.072Z,17.07
2017-12-02T21:09:11.358Z,16.87
2017-12-02T21:11:39.626Z,15.00
2017-12-02T21:14:07.914Z,18.13
2017-12-02T21:16:35.414Z,17.27
2017-12-02T21:19:02.914Z,18.93
2017-12-02T21:21:31.194Z,17.70
2017-12-02T21:23:59.487Z,16.73
2017-12-02T21:26:27.002Z,17.77
2017-12-02T21:28:54.502Z,18.67
2017-12-02T21:31:22.022Z,18.20
2017-12-02T21:33:49.523Z,16.90
2017-12-02T21:36:17.058Z,18.43
2017-12-02T21:38:45.331Z,17.27
2017-12-02T21:41:13.602Z,17.67
2017-12-02T21:43:41.118Z,17.50
2017-12-02T21:46:08.629Z,17.27
2017-12-02T21:48:36.919Z,17.20
2017-12-02T21:51:04.422Z,16.70
2017-12-02T21:53:31.938Z,16.07
2017-12-02T21:55:59.460Z,13.53
2017-12-02T21:58:26.982Z,15.33
2017-12-02T22:00:54.486Z,13.53
2017-12-02T22:03:22.779Z,13.97
2017-12-02T22:05:51.051Z,15.00
2017-12-02T22:08:18.582Z,14.20
2017-12-02T22:10:46.094Z,15.07
2017-12-02T22:13:13.618Z,15.00
2017-12-02T22:15:41.902Z,12.77
2017-12-02T22:18:10.170Z,13.47
2017-12-02T22:20:38.454Z,12.70
2017-12-02T22:23:06.717Z,13.10
2017-12-02T22:25:35.007Z,13.23
2017-12-02T22:28:03.270Z,13.20
2017-12-02T22:30:31.559Z,13.90
2017-12-02T22:32:59.831Z,11.60
2017-12-02T22:35:28.110Z,12.07
2017-12-02T22:37:56.381Z,12.27
2017-12-02T22:40:24.668Z,12.20
2017-12-02T22:42:52.173Z,11.50
2017-12-02T22:45:19.699Z,13.20
2017-12-02T22:47:47.198Z,11.60
2017-12-02T22:50:14.704Z,12.93
2017-12-02T22:52:42.227Z,12.60
2017-12-02T22:55:09.739Z,11.40
2017-12-02T22:57:37.250Z,9.73
2017-12-02T23:00:04.755Z,11.47
2017-12-02T23:02:32.271Z,12.47
2017-12-02T23:05:00.580Z,10.40
2017-12-02T23:07:28.095Z,11.20
2017-12-02T23:09:55.598Z,10.57
2017-12-02T23:12:23.122Z,11.40
2017-12-02T23:14:51.391Z,10.43
2017-12-02T23:17:18.937Z,10.90
2017-12-02T23:19:46.438Z,11.50
2017-12-02T23:22:13.999Z,12.57
2017-12-02T23:24:41.524Z,11.53
2017-12-02T23:27:09.022Z,11.10
2017-12-02T23:29:36.544Z,10.13
2017-12-02T23:32:04.047Z,10.53
2017-12-02T23:34:31.566Z,10.77
2017-12-02T23:36:59.862Z,10.57
2017-12-02T23:39:27.380Z,10.27
2017-12-02T23:41:54.883Z,10.77
2017-12-02T23:44:22.407Z,11.37
2017-12-02T23:46:49.908Z,11.73
2017-12-02T23:49:17.427Z,10.50
2017-12-02T23:51:44.925Z,12.20
2017-12-02T23:54:12.459Z,10.17
2017-12-02T23:56:40.727Z,12.00
2017-12-02T23:59:09.003Z,10.17
